Time;durP1;ratioP1;P1;durP2;ratioP2;P2;SDS_P1;SDS_P2;PMS_P1;PMS_P2;Temp;Humidity;BMP_temperature;BMP_pressure;BME280_temperature;BME280_humidity;BME280_pressure;Samples;Min_cycle;Max_cycle;Signal;HPM_P1;HPM_P2
2023/04/15 00:00:34;;;;;;;5.88;4.90;;;;;;;7.65;85.35;97140.72;4182254;28;20233;-81
2023/04/15 00:02:37;;;;;;;6.82;5.25;;;;;;;7.64;86.27;97152.06;4181848;28;20197;-81
2023/04/15 00:04:41;;;;;;;7.72;6.30;;;;;;;7.59;85.81;97151.53;4175770;28;20304;-81
2023/04/15 00:06:51;;;;;;;7.22;5.38;;;;;;;7.56;86.77;97146.56;4168129;28;20685;-81
2023/04/15 00:08:55;;;;;;;7.47;5.72;;;;;;;7.56;85.39;97146.56;4177718;28;20197;-81
2023/04/15 00:11:01;;;;;;;8.80;5.35;;;;;;;7.53;86.96;97145.06;4178982;28;20216;-81
2023/04/15 00:13:06;;;;;;;9.35;5.70;;;;;;;7.55;85.49;97142.34;4180917;28;20730;-81
2023/04/15 00:15:11;;;;;;;9.45;5.55;;;;;;;7.52;85.54;97143.38;4180998;28;20393;-81
2023/04/15 00:17:14;;;;;;;9.40;6.60;;;;;;;7.46;86.47;97143.00;4182513;28;20214;-81
2023/04/15 00:19:17;;;;;;;13.32;6.70;;;;;;;7.47;86.01;97149.00;4165195;28;20312;-81
2023/04/15 00:21:21;;;;;;;9.70;6.05;;;;;;;7.43;86.86;97142.38;4170108;28;20257;-81
2023/04/15 00:23:24;;;;;;;8.07;5.15;;;;;;;7.42;85.90;97145.91;4168941;28;20283;-81
2023/04/15 00:25:28;;;;;;;7.47;5.70;;;;;;;7.39;86.50;97141.78;4182304;28;20713;-81
2023/04/15 00:27:31;;;;;;;7.50;5.30;;;;;;;7.40;87.28;97142.63;4180851;28;20209;-81
2023/04/15 00:29:36;;;;;;;7.38;5.20;;;;;;;7.35;87.01;97139.50;4179432;28;20631;-81
2023/04/15 00:31:39;;;;;;;7.38;5.45;;;;;;;7.36;86.20;97142.00;4178560;28;20772;-81
2023/04/15 00:33:42;;;;;;;7.97;4.80;;;;;;;7.33;85.41;97134.41;4184463;28;20243;-81
2023/04/15 00:35:45;;;;;;;10.55;6.20;;;;;;;7.31;86.56;97133.72;4187893;28;20217;-81
2023/04/15 00:37:48;;;;;;;6.15;5.10;;;;;;;7.30;86.29;97133.81;4171660;28;20219;-81
2023/04/15 00:39:51;;;;;;;6.82;6.10;;;;;;;7.28;86.87;97135.72;4175582;28;20218;-81
2023/04/15 00:41:56;;;;;;;7.13;5.45;;;;;;;7.25;86.17;97134.16;4168025;28;20698;-81
2023/04/15 00:43:59;;;;;;;10.75;7.82;;;;;;;7.28;87.55;97141.72;4160621;28;20211;-81
2023/04/15 00:46:04;;;;;;;9.23;6.45;;;;;;;7.29;87.43;97137.34;4170100;28;20284;-81
2023/04/15 00:48:08;;;;;;;6.72;5.20;;;;;;;7.33;86.49;97134.41;4182187;28;20744;-81
2023/04/15 00:50:11;;;;;;;6.50;5.43;;;;;;;7.33;86.78;97142.19;4184619;28;20216;-81
2023/04/15 00:52:14;;;;;;;10.25;7.50;;;;;;;7.36;87.44;97141.16;4167439;28;20243;-81
2023/04/15 00:54:18;;;;;;;8.55;6.13;;;;;;;7.31;87.08;97141.50;4167541;28;20287;-81
2023/04/15 00:56:23;;;;;;;7.53;5.80;;;;;;;7.31;86.58;97145.88;4183747;28;20237;-81
2023/04/15 00:58:27;;;;;;;9.18;5.18;;;;;;;7.24;85.64;97144.63;4186132;28;20378;-81
2023/04/15 01:00:34;;;;;;;7.07;5.07;;;;;;;7.16;86.18;97142.56;4179693;28;20669;-81
2023/04/15 01:02:39;;;;;;;7.18;4.82;;;;;;;7.16;85.34;97137.38;4182310;28;20224;-81
2023/04/15 01:04:43;;;;;;;6.65;5.40;;;;;;;7.10;84.99;97143.00;4171345;28;20225;-81
2023/04/15 01:06:46;;;;;;;7.30;5.13;;;;;;;7.05;85.64;97139.06;4184163;28;20545;-81
2023/04/15 01:08:49;;;;;;;8.43;5.65;;;;;;;7.03;86.43;97132.34;4165801;28;20852;-81
2023/04/15 01:10:53;;;;;;;6.78;5.28;;;;;;;7.01;87.30;97132.44;4184874;28;20213;-81
2023/04/15 01:12:56;;;;;;;8.00;5.85;;;;;;;7.02;86.87;97133.25;4168702;28;20264;-81
2023/04/15 01:15:01;;;;;;;6.63;5.20;;;;;;;7.00;85.88;97128.19;4167815;28;20795;-81
2023/04/15 01:17:04;;;;;;;11.20;5.53;;;;;;;7.01;85.88;97121.25;4182075;28;20263;-81
2023/04/15 01:19:11;;;;;;;6.38;5.47;;;;;;;7.03;86.36;97124.56;4166786;28;20206;-81
2023/04/15 01:21:14;;;;;;;6.90;5.10;;;;;;;7.03;86.03;97120.19;4171214;28;20210;-81
2023/04/15 01:23:17;;;;;;;7.95;5.05;;;;;;;6.99;86.72;97123.09;4184415;28;20212;-81
2023/04/15 01:25:30;;;;;;;9.45;5.20;;;;;;;6.97;86.28;97117.22;4178363;28;20267;-81
2023/04/15 01:27:35;;;;;;;7.97;6.13;;;;;;;6.96;86.18;97123.31;4168040;28;20568;-80
2023/04/15 01:29:38;;;;;;;5.93;5.13;;;;;;;6.94;86.66;97120.84;4181240;28;20274;-80
2023/04/15 01:31:49;;;;;;;5.40;4.72;;;;;;;6.91;85.89;97125.41;4185115;28;20246;-81
2023/04/15 01:34:11;;;;;;;6.00;4.88;;;;;;;6.86;86.33;97125.72;4186204;28;20213;-81
2023/04/15 01:36:33;;;;;;;8.27;5.13;;;;;;;6.84;85.85;97129.34;4185360;28;20226;-81
2023/04/15 01:38:36;;;;;;;5.47;4.60;;;;;;;6.78;85.86;97122.84;4183044;28;20255;-81
2023/04/15 01:40:40;;;;;;;6.40;4.75;;;;;;;6.78;85.87;97115.06;4177443;28;20286;-80
2023/04/15 01:42:45;;;;;;;5.25;4.60;;;;;;;6.74;86.47;97120.56;4181583;28;20250;-80
2023/04/15 01:44:52;;;;;;;5.68;5.07;;;;;;;6.70;85.25;97111.34;4185947;28;20267;-81
2023/04/15 01:46:57;;;;;;;8.93;5.13;;;;;;;6.69;85.93;97115.72;4189173;28;20223;-80
2023/04/15 01:49:05;;;;;;;6.65;4.53;;;;;;;6.72;86.74;97114.66;4182410;28;20213;-80
2023/04/15 01:51:10;;;;;;;7.38;5.05;;;;;;;6.72;86.72;97114.66;4180562;28;20259;-80
2023/04/15 01:53:14;;;;;;;6.40;4.82;;;;;;;6.70;86.86;97116.53;4182748;28;20212;-80
2023/04/15 01:55:19;;;;;;;6.47;5.32;;;;;;;6.66;86.63;97117.66;4176172;28;20205;-80
2023/04/15 01:57:25;;;;;;;7.10;5.30;;;;;;;6.63;86.73;97115.28;4179604;28;20261;-80
2023/04/15 01:59:30;;;;;;;6.45;4.93;;;;;;;6.59;86.11;97109.50;4192787;28;20204;-80
2023/04/15 02:01:35;;;;;;;6.18;4.80;;;;;;;6.56;86.55;97114.88;4183750;28;20202;-80
2023/04/15 02:03:40;;;;;;;5.43;4.50;;;;;;;6.53;86.56;97109.09;4186048;28;20287;-80
2023/04/15 02:05:44;;;;;;;8.35;5.00;;;;;;;6.51;86.95;97108.38;4181695;28;20276;-80
2023/04/15 02:07:49;;;;;;;5.95;5.15;;;;;;;6.50;86.21;97111.88;4180761;28;20269;-80
2023/04/15 02:09:53;;;;;;;6.63;4.45;;;;;;;6.48;86.41;97111.16;4187875;28;20204;-81
2023/04/15 02:11:58;;;;;;;6.30;4.30;;;;;;;6.47;86.46;97112.09;4185520;28;20694;-80
2023/04/15 02:14:04;;;;;;;6.10;4.50;;;;;;;6.47;86.39;97124.22;4185490;28;20204;-80
2023/04/15 02:16:16;;;;;;;5.70;4.63;;;;;;;6.45;86.37;97119.16;4180576;28;20260;-80
2023/04/15 02:18:21;;;;;;;5.97;4.90;;;;;;;6.42;86.34;97111.59;4188389;28;20896;-81
2023/04/15 02:20:25;;;;;;;6.20;4.90;;;;;;;6.44;86.18;97114.06;4182764;28;20664;-81
2023/04/15 02:22:30;;;;;;;5.65;4.72;;;;;;;6.41;86.65;97117.69;4182186;28;20212;-80
2023/04/15 02:24:34;;;;;;;8.10;4.90;;;;;;;6.39;86.49;97121.31;4180134;28;20728;-80
2023/04/15 02:26:39;;;;;;;5.45;4.40;;;;;;;6.39;86.84;97118.72;4183859;28;20256;-81
2023/04/15 02:28:43;;;;;;;7.50;4.85;;;;;;;6.39;86.92;97114.38;4183267;28;20254;-81
2023/04/15 02:30:53;;;;;;;5.18;4.65;;;;;;;6.36;86.77;97118.91;4180518;28;20205;-80
2023/04/15 02:33:00;;;;;;;6.00;4.70;;;;;;;6.32;86.53;97115.72;4182110;28;20220;-80
2023/04/15 02:35:05;;;;;;;5.00;4.50;;;;;;;6.28;86.37;97111.66;4182967;28;20216;-81
2023/04/15 02:37:12;;;;;;;6.30;4.55;;;;;;;6.24;86.59;97114.56;4184275;28;20687;-81
2023/04/15 02:39:17;;;;;;;6.20;4.50;;;;;;;6.25;86.86;97109.28;4180793;28;20674;-80
2023/04/15 02:41:26;;;;;;;6.03;4.75;;;;;;;6.25;86.79;97114.47;4189160;28;21226;-80
2023/04/15 02:43:30;;;;;;;5.57;4.95;;;;;;;6.23;87.11;97116.31;4185090;28;20266;-81
2023/04/15 02:45:34;;;;;;;5.90;4.63;;;;;;;6.23;87.05;97111.16;4191000;28;20191;-80
2023/04/15 02:47:43;;;;;;;5.75;4.20;;;;;;;6.24;86.87;97111.97;4185199;28;20670;-80
2023/04/15 02:49:47;;;;;;;8.25;5.57;;;;;;;6.23;86.94;97105.97;4187699;28;20207;-81
2023/04/15 02:51:52;;;;;;;6.88;4.60;;;;;;;6.28;87.12;97113.44;4186147;28;20205;-80
2023/04/15 02:53:58;;;;;;;6.30;4.70;;;;;;;6.28;87.12;97113.44;4180123;28;20210;-80
2023/04/15 02:56:02;;;;;;;5.15;4.65;;;;;;;6.25;86.76;97119.63;4183351;28;20950;-80
2023/04/15 02:58:07;;;;;;;6.30;5.30;;;;;;;6.20;86.55;97113.13;4183294;28;20234;-80
2023/04/15 03:00:13;;;;;;;8.23;4.88;;;;;;;6.17;86.31;97111.56;4181511;28;20203;-80
2023/04/15 03:02:19;;;;;;;8.48;4.72;;;;;;;6.07;85.86;97106.28;4193206;28;20206;-80
2023/04/15 03:04:25;;;;;;;5.20;4.70;;;;;;;5.96;84.59;97113.94;4201446;28;20202;-80
2023/04/15 03:06:29;;;;;;;5.30;4.80;;;;;;;5.90;85.34;97104.81;4183650;28;20209;-80
2023/04/15 03:08:34;;;;;;;5.63;4.60;;;;;;;5.91;85.87;97111.66;4180684;28;20262;-81
2023/04/15 03:10:38;;;;;;;6.90;4.80;;;;;;;5.91;85.93;97118.56;4184157;28;20210;-81
2023/04/15 03:12:44;;;;;;;6.57;4.95;;;;;;;5.91;86.48;97108.22;4184994;28;20852;-80
2023/04/15 03:14:53;;;;;;;6.75;5.50;;;;;;;5.94;86.87;97118.34;4184408;28;20853;-81
2023/04/15 03:17:02;;;;;;;9.15;6.18;;;;;;;5.92;86.42;97113.28;4180818;28;20678;-80
2023/04/15 03:19:07;;;;;;;5.70;5.10;;;;;;;5.91;87.23;97113.38;4185859;28;20595;-80
2023/04/15 03:21:13;;;;;;;6.60;4.85;;;;;;;5.91;87.08;97109.06;4192269;28;20647;-80
2023/04/15 03:23:17;;;;;;;9.55;6.13;;;;;;;5.90;87.19;97103.97;4182538;28;20261;-80
2023/04/15 03:25:21;;;;;;;6.95;5.18;;;;;;;5.89;88.12;97102.31;4176081;28;20211;-80
2023/04/15 03:27:26;;;;;;;5.85;5.10;;;;;;;5.92;87.73;97104.69;4179154;28;20202;-81
2023/04/15 03:29:33;;;;;;;8.77;5.97;;;;;;;6.02;88.44;97118.69;4183734;28;20743;-80
2023/04/15 03:31:37;;;;;;;8.60;5.75;;;;;;;6.07;88.39;97106.28;4183665;28;20200;-80
2023/04/15 03:33:42;;;;;;;7.45;5.70;;;;;;;6.09;88.83;97116.44;4183885;28;20257;-80
2023/04/15 03:35:46;;;;;;;6.68;4.95;;;;;;;6.11;88.32;97104.19;4181965;28;20273;-80
2023/04/15 03:37:52;;;;;;;6.07;5.47;;;;;;;6.14;88.22;97116.13;4178133;28;20232;-80
2023/04/15 03:39:56;;;;;;;8.65;5.80;;;;;;;6.09;87.83;97108.66;4177324;28;20241;-80
2023/04/15 03:42:02;;;;;;;6.93;5.85;;;;;;;6.08;87.92;97102.78;4182747;28;20557;-80
2023/04/15 03:44:06;;;;;;;6.60;4.93;;;;;;;6.08;87.94;97115.72;4180629;28;20926;-80
2023/04/15 03:46:10;;;;;;;6.57;5.90;;;;;;;6.10;87.47;97119.84;4182097;28;20203;-80
2023/04/15 03:48:15;;;;;;;6.15;5.55;;;;;;;6.07;87.53;97114.84;4182525;28;20263;-81
2023/04/15 03:50:21;;;;;;;6.05;5.40;;;;;;;6.04;87.70;97114.25;4184341;28;20249;-80
2023/04/15 03:52:26;;;;;;;5.72;5.00;;;;;;;6.01;87.34;97106.69;4182617;28;20572;-80
2023/04/15 03:54:31;;;;;;;12.88;4.95;;;;;;;5.96;87.10;97104.41;4182561;28;20264;-80
2023/04/15 03:56:36;;;;;;;7.40;5.03;;;;;;;5.96;87.60;97106.16;4176953;28;21026;-80
2023/04/15 03:58:40;;;;;;;5.10;4.18;;;;;;;5.90;87.19;97102.22;4180762;28;20220;-80
2023/04/15 04:00:44;;;;;;;6.63;4.53;;;;;;;5.90;87.06;97107.38;4182011;28;20651;-80
2023/04/15 04:02:49;;;;;;;5.88;4.50;;;;;;;5.87;86.95;97101.59;4195619;28;20250;-80
2023/04/15 04:04:54;;;;;;;5.07;4.47;;;;;;;5.87;87.05;97105.00;4180768;28;20319;-80
2023/04/15 04:06:58;;;;;;;5.38;4.10;;;;;;;5.83;86.71;97100.13;4187226;28;20205;-80
2023/04/15 04:09:03;;;;;;;4.22;3.83;;;;;;;5.78;87.03;97092.66;4182861;28;20782;-80
2023/04/15 04:11:09;;;;;;;6.13;4.05;;;;;;;5.77;86.69;97097.94;4188391;28;20246;-80
2023/04/15 04:13:13;;;;;;;5.20;3.90;;;;;;;5.75;86.78;97097.22;4179963;28;20213;-80
2023/04/15 04:15:17;;;;;;;7.30;4.35;;;;;;;5.76;87.25;97104.06;4183258;28;20205;-80
2023/04/15 04:17:22;;;;;;;5.55;4.00;;;;;;;5.73;86.63;97105.06;4183793;28;20262;-80
2023/04/15 04:19:26;;;;;;;6.43;4.30;;;;;;;5.75;86.91;97105.81;4180708;28;20486;-80
2023/04/15 04:21:32;;;;;;;7.05;4.10;;;;;;;5.74;86.95;97105.91;4184887;28;20204;-80
2023/04/15 04:23:37;;;;;;;4.50;3.88;;;;;;;5.73;87.20;97109.41;4182468;28;20659;-80
2023/04/15 04:25:42;;;;;;;5.50;4.40;;;;;;;5.68;86.47;97109.69;4181442;28;20216;-81
2023/04/15 04:27:48;;;;;;;7.65;4.60;;;;;;;5.67;86.45;97099.47;4182715;28;20249;-81
2023/04/15 04:29:52;;;;;;;6.88;4.68;;;;;;;5.65;87.30;97101.28;4182287;28;20256;-80
2023/04/15 04:31:56;;;;;;;5.10;4.30;;;;;;;5.66;86.85;97102.97;4183629;28;20299;-81
2023/04/15 04:34:01;;;;;;;5.80;4.38;;;;;;;5.65;86.43;97114.22;4184598;28;20663;-80
2023/04/15 04:36:06;;;;;;;5.50;4.13;;;;;;;5.67;86.39;97112.38;4181956;28;20207;-80
2023/04/15 04:38:11;;;;;;;5.70;3.85;;;;;;;5.64;86.41;97108.22;4181134;28;20265;-80
2023/04/15 04:40:15;;;;;;;7.07;4.60;;;;;;;5.65;87.00;97112.50;4183379;28;20221;-80
2023/04/15 04:42:20;;;;;;;7.13;4.13;;;;;;;5.62;86.49;97117.84;4184218;28;20282;-80
2023/04/15 04:44:25;;;;;;;6.57;4.18;;;;;;;5.63;87.02;97114.31;4181116;28;20675;-80
2023/04/15 04:46:30;;;;;;;5.70;4.90;;;;;;;5.60;86.59;97112.88;4182849;28;20257;-80
2023/04/15 04:48:34;;;;;;;5.53;4.45;;;;;;;5.58;86.44;97123.31;4185201;28;20203;-80
2023/04/15 04:50:39;;;;;;;4.78;4.28;;;;;;;5.59;86.35;97121.56;4182299;28;20259;-80
2023/04/15 04:52:43;;;;;;;5.05;4.28;;;;;;;5.56;86.16;97126.91;4180086;28;24146;-80
2023/04/15 04:54:47;;;;;;;7.53;4.50;;;;;;;5.54;86.02;97124.44;4194386;28;20263;-80
2023/04/15 04:56:52;;;;;;;4.78;4.28;;;;;;;5.57;86.55;97128.59;4174647;28;20249;-80
2023/04/15 04:58:56;;;;;;;5.80;4.50;;;;;;;5.58;86.62;97125.06;4173882;28;20752;-80
2023/04/15 05:01:02;;;;;;;6.00;4.50;;;;;;;5.59;87.27;97126.72;4185009;28;20276;-80
2023/04/15 05:03:07;;;;;;;5.30;4.65;;;;;;;5.59;87.33;97127.53;4190832;28;20579;-80
2023/04/15 05:05:12;;;;;;;5.32;4.05;;;;;;;5.60;87.40;97129.22;4173940;28;20276;-80
2023/04/15 05:07:16;;;;;;;4.57;3.92;;;;;;;5.61;87.78;97131.69;4184745;28;20205;-80
2023/04/15 05:09:20;;;;;;;5.28;4.38;;;;;;;5.64;87.60;97135.84;4180911;28;20211;-80
2023/04/15 05:11:25;;;;;;;6.03;4.20;;;;;;;5.66;87.00;97134.81;4182318;28;20587;-80
2023/04/15 05:13:29;;;;;;;7.80;4.78;;;;;;;5.64;87.33;97141.84;4181767;28;20211;-80
2023/04/15 05:15:35;;;;;;;6.95;3.90;;;;;;;5.65;88.11;97143.53;4179016;28;20208;-80
2023/04/15 05:17:43;;;;;;;5.28;4.32;;;;;;;5.63;88.12;97145.34;4181677;28;20216;-80
2023/04/15 05:19:47;;;;;;;4.43;4.03;;;;;;;5.63;87.25;97154.88;4181163;28;20238;-80
2023/04/15 05:21:52;;;;;;;6.50;4.28;;;;;;;5.63;87.75;97149.69;4184717;28;20194;-80
2023/04/15 05:23:57;;;;;;;6.18;4.50;;;;;;;5.65;86.73;97138.34;4185254;28;20215;-80
2023/04/15 05:26:01;;;;;;;7.95;4.22;;;;;;;5.66;86.38;97136.56;4181154;28;20517;-80
2023/04/15 05:28:06;;;;;;;6.55;4.47;;;;;;;5.67;85.56;97148.59;4184192;28;20258;-80
2023/04/15 05:30:12;;;;;;;5.95;4.72;;;;;;;5.65;85.70;97148.69;4181321;28;20211;-80
2023/04/15 05:32:17;;;;;;;4.78;4.25;;;;;;;5.60;86.07;97141.31;4180821;28;20215;-80
2023/04/15 05:34:23;;;;;;;8.02;5.07;;;;;;;5.57;86.32;97146.69;4183722;28;20268;-80
2023/04/15 05:36:27;;;;;;;4.82;3.97;;;;;;;5.57;85.67;97150.09;4178862;28;20206;-80
2023/04/15 05:38:32;;;;;;;5.95;4.90;;;;;;;5.61;85.50;97147.22;4186469;28;20220;-80
2023/04/15 05:40:37;;;;;;;5.03;4.38;;;;;;;5.64;85.84;97147.03;4179064;28;20239;-80
2023/04/15 05:42:41;;;;;;;7.45;4.50;;;;;;;5.73;86.16;97149.03;4186173;28;20232;-80
2023/04/15 05:44:45;;;;;;;4.97;4.47;;;;;;;5.84;86.15;97149.19;4180895;28;20207;-80
2023/04/15 05:46:50;;;;;;;5.20;4.20;;;;;;;5.97;86.75;97154.38;4186144;28;20268;-80
2023/04/15 05:48:54;;;;;;;5.63;4.43;;;;;;;6.16;87.71;97166.00;4182018;28;20761;-80
2023/04/15 05:51:01;;;;;;;6.72;5.07;;;;;;;6.37;87.60;97168.00;4182558;28;20264;-80
2023/04/15 05:53:06;;;;;;;10.68;6.30;;;;;;;6.56;86.70;97166.69;4186215;28;20210;-80
2023/04/15 05:55:10;;;;;;;7.55;5.70;;;;;;;6.73;86.06;97168.13;4185856;28;20679;-80
2023/04/15 05:57:15;;;;;;;6.35;5.75;;;;;;;6.94;86.64;97179.63;4179113;28;20268;-80
2023/04/15 05:59:19;;;;;;;6.80;5.22;;;;;;;7.20;85.35;97182.91;4183838;28;20214;-80
2023/04/15 06:01:24;;;;;;;7.47;6.10;;;;;;;7.41;84.42;97175.38;4185927;28;20224;-80
2023/04/15 06:03:28;;;;;;;8.60;6.43;;;;;;;7.65;85.08;97182.25;4176755;28;20212;-80
2023/04/15 06:05:35;;;;;;;6.47;4.75;;;;;;;7.91;83.56;97191.56;4183446;28;20225;-80
2023/04/15 06:07:42;;;;;;;5.85;4.50;;;;;;;8.06;82.35;97189.53;4181174;28;20213;-80
2023/04/15 06:09:48;;;;;;;7.53;4.47;;;;;;;8.29;82.91;97193.91;4184494;28;20197;-80
2023/04/15 06:11:53;;;;;;;5.53;4.20;;;;;;;8.49;80.52;97195.84;4186205;28;20212;-80
2023/04/15 06:13:57;;;;;;;5.30;4.22;;;;;;;8.67;82.21;97194.47;4182272;28;20289;-80
2023/04/15 06:16:02;;;;;;;8.77;4.20;;;;;;;8.92;81.12;97195.94;4182248;28;20275;-80
2023/04/15 06:18:07;;;;;;;7.18;4.97;;;;;;;9.13;81.49;97196.91;4184328;28;20206;-80
2023/04/15 06:20:13;;;;;;;8.20;5.15;;;;;;;9.31;79.95;97202.47;4184736;28;20677;-80
2023/04/15 06:22:17;;;;;;;5.15;4.65;;;;;;;9.49;79.59;97200.06;4178266;28;20630;-80
2023/04/15 06:24:23;;;;;;;5.32;4.80;;;;;;;9.67;78.78;97203.84;4181662;28;20282;-80
2023/04/15 06:26:28;;;;;;;8.77;4.50;;;;;;;9.84;78.84;97214.56;4180233;28;20674;-80
2023/04/15 06:28:32;;;;;;;6.50;4.88;;;;;;;10.04;79.81;97219.06;4175019;28;20201;-80
2023/04/15 06:30:37;;;;;;;4.93;4.20;;;;;;;10.17;79.30;97219.72;4176066;28;20202;-80
2023/04/15 06:32:41;;;;;;;8.13;5.00;;;;;;;10.27;78.44;97218.03;4176509;28;20274;-80
2023/04/15 06:34:46;;;;;;;5.87;4.43;;;;;;;10.38;78.47;97220.59;4176833;28;20984;-80
2023/04/15 06:36:50;;;;;;;8.47;4.87;;;;;;;10.50;77.95;97216.97;4177855;28;20686;-81
2023/04/15 06:38:55;;;;;;;8.00;4.80;;;;;;;10.68;78.01;97229.31;4177614;28;21736;-80
2023/04/15 06:41:01;;;;;;;5.60;4.23;;;;;;;10.77;77.60;97225.16;4175099;28;20686;-80
2023/04/15 06:43:05;;;;;;;5.80;4.37;;;;;;;10.79;79.03;97223.22;4187780;28;20639;-80
2023/04/15 06:45:10;;;;;;;6.50;4.90;;;;;;;10.83;78.30;97230.66;4195512;28;20680;-80
2023/04/15 06:47:15;;;;;;;6.63;4.90;;;;;;;10.77;80.08;97225.16;4192198;28;22604;-81
2023/04/15 06:49:19;;;;;;;5.27;4.73;;;;;;;10.63;78.05;97223.69;4177795;28;21001;-80
2023/04/15 06:51:24;;;;;;;6.50;5.47;;;;;;;10.66;80.79;97226.03;4180749;28;20653;-80
2023/04/15 06:53:30;;;;;;;7.33;5.70;;;;;;;10.74;79.55;97222.78;4184522;28;20632;-80
2023/04/15 06:55:34;;;;;;;6.80;5.87;;;;;;;10.70;78.68;97216.16;4188603;28;20677;-80
2023/04/15 06:57:40;;;;;;;7.00;5.30;;;;;;;10.60;77.92;97223.06;4188382;28;20984;-82
2023/04/15 06:59:44;;;;;;;8.33;6.27;;;;;;;10.51;78.20;97216.03;4192448;28;20639;-85
2023/04/15 07:01:49;;;;;;;7.67;5.63;;;;;;;10.49;78.42;97216.16;4185391;28;21239;-81
2023/04/15 07:03:53;;;;;;;7.80;5.87;;;;;;;10.47;77.73;97217.22;4180732;28;20689;-84
2023/04/15 07:05:58;;;;;;;8.67;6.00;;;;;;;10.45;79.15;97225.19;4184651;28;20690;-81
2023/04/15 07:08:03;;;;;;;7.87;6.47;;;;;;;10.43;81.38;97216.66;4187357;28;20630;-81
2023/04/15 07:10:08;;;;;;;6.30;5.70;;;;;;;10.41;81.14;97222.94;4187860;28;21270;-81
2023/04/15 07:12:13;;;;;;;8.18;7.03;;;;;;;10.41;81.47;97221.16;4188400;28;21279;-81
2023/04/15 07:14:19;;;;;;;7.17;5.63;;;;;;;10.50;81.44;97223.00;4190199;28;20217;-79
2023/04/15 07:16:23;;;;;;;7.27;5.50;;;;;;;10.62;81.37;97226.41;4189314;28;20765;-79
2023/04/15 07:18:27;;;;;;;7.60;5.10;;;;;;;10.72;79.98;97227.28;4191828;28;20623;-79
2023/04/15 07:20:32;;;;;;;7.77;5.53;;;;;;;10.90;81.93;97224.00;4189282;28;20636;-79
2023/04/15 07:22:36;;;;;;;5.67;5.03;;;;;;;11.12;81.13;97227.28;4183635;28;20645;-78
2023/04/15 07:24:41;;;;;;;8.97;5.50;;;;;;;11.30;78.18;97231.75;4183589;28;20654;-79
2023/04/15 07:26:45;;;;;;;6.63;4.90;;;;;;;11.55;78.93;97230.53;4189309;28;20624;-81
2023/04/15 07:28:50;;;;;;;5.40;4.63;;;;;;;11.81;78.52;97227.31;4184633;28;20623;-83
2023/04/15 07:30:56;;;;;;;7.23;5.07;;;;;;;12.03;76.65;97229.72;4189091;28;20949;-80
2023/04/15 07:33:01;;;;;;;7.20;4.70;;;;;;;12.12;77.32;97227.13;4189240;28;20693;-80
2023/04/15 07:35:06;;;;;;;9.27;5.03;;;;;;;12.27;77.54;97226.59;4184040;28;21041;-80
2023/04/15 07:37:11;;;;;;;5.70;4.97;;;;;;;12.24;75.17;97223.44;4185367;28;21036;-80
2023/04/15 07:39:15;;;;;;;6.80;5.00;;;;;;;12.14;75.81;97222.56;4187136;28;20614;-80
2023/04/15 07:41:20;;;;;;;4.90;4.27;;;;;;;12.16;76.80;97225.88;4191582;28;20637;-80
2023/04/15 07:43:25;;;;;;;8.40;5.50;;;;;;;12.27;74.65;97220.53;4183827;28;20640;-79
2023/04/15 07:45:29;;;;;;;13.63;9.47;;;;;;;12.53;76.47;97226.88;4182722;28;20932;-79
2023/04/15 07:47:35;;;;;;;6.67;4.60;;;;;;;13.04;76.82;97236.91;4187445;28;21194;-79
2023/04/15 07:49:39;;;;;;;5.70;4.87;;;;;;;13.41;76.13;97240.41;4184745;28;21437;-79
2023/04/15 07:51:44;;;;;;;10.67;5.50;;;;;;;13.75;74.99;97237.91;4179702;28;20632;-80
2023/04/15 07:53:49;;;;;;;6.30;4.43;;;;;;;13.95;73.27;97234.25;4179875;28;20669;-80
2023/04/15 07:55:54;;;;;;;5.63;4.20;;;;;;;13.91;69.30;97224.19;4180369;28;21061;-81
2023/04/15 07:57:58;;;;;;;5.90;4.57;;;;;;;13.65;69.41;97225.81;4181274;28;20701;-80
2023/04/15 08:00:06;;;;;;;6.37;4.90;;;;;;;13.46;70.17;97227.72;4188386;28;20641;-80
2023/04/15 08:02:17;;;;;;;8.43;4.77;;;;;;;13.29;69.85;97221.44;4188307;28;21029;-81
2023/04/15 08:04:23;;;;;;;9.50;5.70;;;;;;;13.27;70.24;97220.72;4188270;28;20695;-80
2023/04/15 08:06:27;;;;;;;7.30;5.03;;;;;;;13.27;70.90;97220.72;4180692;28;20633;-81
2023/04/15 08:08:32;;;;;;;7.40;4.87;;;;;;;13.40;69.98;97225.66;4182828;28;20884;-78
2023/04/15 08:10:37;;;;;;;7.00;5.47;;;;;;;13.61;72.08;97223.66;4184497;28;20689;-78
2023/04/15 08:12:42;;;;;;;7.37;4.90;;;;;;;13.67;70.84;97218.66;4180579;28;21774;-80
2023/04/15 08:14:46;;;;;;;6.83;4.70;;;;;;;13.82;71.11;97222.44;4185803;28;21217;-80
2023/04/15 08:16:51;;;;;;;8.47;5.33;;;;;;;13.86;70.28;97222.03;4188064;28;20628;-80
2023/04/15 08:18:56;;;;;;;8.07;4.77;;;;;;;13.81;70.13;97216.38;4183766;28;20675;-80
2023/04/15 08:21:02;;;;;;;5.87;4.77;;;;;;;13.71;69.22;97217.38;4189709;28;20684;-80
2023/04/15 08:23:06;;;;;;;6.37;4.87;;;;;;;13.67;69.56;97216.84;4185264;28;20654;-80
2023/04/15 08:25:11;;;;;;;9.10;5.63;;;;;;;13.66;70.54;97209.13;4190677;28;20640;-80
2023/04/15 08:27:15;;;;;;;6.37;5.20;;;;;;;13.68;69.60;97215.03;4184858;28;20741;-80
2023/04/15 08:29:19;;;;;;;9.73;5.67;;;;;;;13.81;70.47;97215.56;4189067;28;21175;-81
2023/04/15 08:31:26;;;;;;;7.20;5.13;;;;;;;13.94;71.44;97227.34;4187987;28;20676;-81
2023/04/15 08:33:30;;;;;;;8.17;5.40;;;;;;;14.04;69.75;97220.22;4188483;28;20693;-81
2023/04/15 08:35:35;;;;;;;8.60;5.60;;;;;;;14.08;68.56;97223.44;4188063;28;21253;-81
2023/04/15 08:37:41;;;;;;;6.90;5.20;;;;;;;14.08;68.08;97220.81;4187782;28;20685;-80
2023/04/15 08:39:45;;;;;;;7.53;5.30;;;;;;;14.02;69.24;97219.56;4182193;28;20633;-81
2023/04/15 08:41:52;;;;;;;9.43;5.27;;;;;;;14.02;68.41;97214.31;4187298;28;20692;-81
2023/04/15 08:43:58;;;;;;;7.13;5.40;;;;;;;14.03;69.75;97215.97;4184418;28;21278;-81
2023/04/15 08:46:04;;;;;;;7.33;5.20;;;;;;;14.03;68.71;97213.34;4184527;28;20640;-80
2023/04/15 08:48:10;;;;;;;8.33;5.30;;;;;;;14.08;69.30;97211.16;4188031;28;21192;-81
2023/04/15 08:50:14;;;;;;;6.87;5.30;;;;;;;14.36;70.59;97221.44;4183177;28;20724;-81
2023/04/15 08:52:19;;;;;;;7.87;5.93;;;;;;;14.58;68.33;97218.38;4180251;28;20627;-81
2023/04/15 08:54:25;;;;;;;9.07;5.80;;;;;;;14.75;67.90;97228.06;4177127;28;20697;-82
2023/04/15 08:56:32;;;;;;;7.20;6.00;;;;;;;14.85;69.20;97221.72;4193499;28;20636;-80
2023/04/15 08:58:37;;;;;;;8.97;5.70;;;;;;;15.12;70.39;97234.72;4188575;28;20622;-80
2023/04/15 09:00:42;;;;;;;8.77;5.57;;;;;;;15.29;68.87;97229.47;4181971;28;20710;-80
2023/04/15 09:02:46;;;;;;;5.97;5.10;;;;;;;15.31;67.40;97232.78;4185833;28;21429;-80
2023/04/15 09:04:51;;;;;;;7.13;5.20;;;;;;;15.28;65.55;97224.38;4184850;28;20715;-80
2023/04/15 09:06:56;;;;;;;8.37;5.13;;;;;;;15.34;66.59;97226.41;4176349;28;20625;-80
2023/04/15 09:09:00;;;;;;;10.57;5.77;;;;;;;15.41;68.87;97219.53;4182700;28;20642;-81
2023/04/15 09:11:07;;;;;;;6.73;4.57;;;;;;;15.44;67.28;97222.69;4175039;28;20716;-81
2023/04/15 09:13:11;;;;;;;11.73;6.00;;;;;;;15.54;67.45;97225.19;4181793;28;20638;-81
2023/04/15 09:15:16;;;;;;;7.40;4.93;;;;;;;15.63;66.96;97220.63;4183726;28;20627;-80
2023/04/15 09:17:21;;;;;;;9.20;6.20;;;;;;;15.72;66.92;97226.75;4175591;28;20632;-81
2023/04/15 09:19:26;;;;;;;10.17;5.20;;;;;;;15.84;66.33;97226.31;4179027;28;21138;-81
2023/04/15 09:21:32;;;;;;;7.37;4.97;;;;;;;16.19;68.45;97234.84;4183342;28;20687;-82
2023/04/15 09:23:38;;;;;;;9.70;6.27;;;;;;;16.53;68.86;97239.06;4186467;28;20676;-82
2023/04/15 09:25:42;;;;;;;7.93;7.13;;;;;;;16.57;67.09;97231.69;4182170;28;20655;-82
2023/04/15 09:27:49;;;;;;;7.97;7.13;;;;;;;16.58;67.23;97241.22;4181292;28;21209;-83
2023/04/15 09:29:54;;;;;;;6.60;5.50;;;;;;;16.57;66.70;97239.59;4174633;28;20631;-81
2023/04/15 09:32:09;;;;;;;7.47;5.57;;;;;;;16.39;65.90;97230.97;4178273;28;20635;-81
2023/04/15 09:34:14;;;;;;;7.00;5.33;;;;;;;16.41;64.92;97230.81;4176337;28;21043;-81
2023/04/15 09:36:18;;;;;;;6.00;4.33;;;;;;;16.57;66.06;97235.13;4173650;28;21410;-82
2023/04/15 09:38:23;;;;;;;6.67;4.40;;;;;;;16.75;65.83;97235.81;4172283;28;20690;-81
2023/04/15 09:40:36;;;;;;;6.30;4.20;;;;;;;16.95;64.75;97239.78;4175066;28;20739;-81
2023/04/15 09:42:56;;;;;;;5.30;4.20;;;;;;;16.92;60.82;97234.03;4180226;28;21045;-81
2023/04/15 09:45:09;;;;;;;7.23;3.97;;;;;;;16.96;62.56;97236.16;4180830;28;20722;-81
2023/04/15 09:47:28;;;;;;;6.90;3.67;;;;;;;17.08;60.82;97226.94;4186685;28;20696;-81
2023/04/15 09:49:33;;;;;;;5.37;3.43;;;;;;;17.04;59.72;97241.41;4188772;28;20647;-81
2023/04/15 09:51:37;;;;;;;5.63;3.37;;;;;;;16.90;59.64;97231.56;4188181;28;20681;-81
2023/04/15 09:53:41;;;;;;;5.23;3.77;;;;;;;16.72;57.46;97233.50;4184531;28;20688;-81